createdAt,value
2019-01-11T00:02:03.465Z,102755.55
2019-01-11T00:04:31.369Z,102749.50
2019-01-11T00:06:59.430Z,102747.77
2019-01-11T00:09:27.478Z,102744.29
2019-01-11T00:11:56.680Z,102746.47
2019-01-11T00:14:27.188Z,102746.89
2019-01-11T00:16:55.422Z,102744.72
2019-01-11T00:19:23.304Z,102743.88
2019-01-11T00:21:51.849Z,102738.69
2019-01-11T00:24:19.975Z,102738.24
2019-01-11T00:26:47.841Z,102736.95
2019-01-11T00:29:15.810Z,102731.77
2019-01-11T00:31:43.790Z,102732.20
2019-01-11T00:34:13.094Z,102728.29
2019-01-11T00:36:41.070Z,102723.98
2019-01-11T00:39:08.936Z,102716.18
2019-01-11T00:41:36.951Z,102723.52
2019-01-11T00:44:04.954Z,102717.02
2019-01-11T00:46:32.982Z,102712.27
2019-01-11T00:49:01.027Z,102716.17
2019-01-11T00:51:28.906Z,102715.32
2019-01-11T00:53:56.817Z,102712.28
2019-01-11T00:56:24.827Z,102706.25
2019-01-11T00:58:52.691Z,102698.44
2019-01-11T01:01:20.566Z,102704.50
2019-01-11T01:03:48.568Z,102698.84
2019-01-11T01:06:16.447Z,102702.73
2019-01-11T01:08:44.445Z,102694.91
2019-01-11T01:11:12.402Z,102695.81
2019-01-11T01:13:40.370Z,102696.67
2019-01-11T01:16:08.334Z,102687.14
2019-01-11T01:18:36.334Z,102694.95
2019-01-11T01:21:04.291Z,102698.45
2019-01-11T01:23:33.487Z,102700.17
2019-01-11T01:26:01.439Z,102694.94
2019-01-11T01:28:29.378Z,102692.75
2019-01-11T01:30:57.387Z,102693.11
2019-01-11T01:33:25.598Z,102689.70
2019-01-11T01:35:53.615Z,102688.38
2019-01-11T01:38:21.515Z,102693.19
2019-01-11T01:40:49.478Z,102691.91
2019-01-11T01:43:17.351Z,102689.30
2019-01-11T01:45:45.372Z,102683.20
2019-01-11T01:48:13.232Z,102685.78
2019-01-11T01:50:41.320Z,102682.80
2019-01-11T01:53:09.257Z,102686.23
2019-01-11T01:55:38.003Z,102691.44
2019-01-11T01:58:06.081Z,102683.20
2019-01-11T02:00:34.695Z,102685.83
2019-01-11T02:03:02.726Z,102678.03
2019-01-11T02:05:31.596Z,102678.45
2019-01-11T02:07:59.658Z,102678.45
2019-01-11T02:10:27.611Z,102678.03
2019-01-11T02:12:55.842Z,102670.67
2019-01-11T02:15:24.321Z,102668.13
2019-01-11T02:17:52.476Z,102663.83
2019-01-11T02:20:26.789Z,102659.95
2019-01-11T02:22:54.965Z,102664.28
2019-01-11T02:25:24.273Z,102668.17
2019-01-11T02:27:53.134Z,102663.77
2019-01-11T02:30:24.261Z,102669.88
2019-01-11T02:32:53.392Z,102666.45
2019-01-11T02:35:21.734Z,102663.33
2019-01-11T02:37:49.814Z,102652.91
2019-01-11T02:40:19.416Z,102649.88
2019-01-11T02:42:48.087Z,102651.61
2019-01-11T02:45:19.777Z,102657.67
2019-01-11T02:47:48.141Z,102646.38
2019-01-11T02:50:16.447Z,102654.17
2019-01-11T02:52:49.691Z,102650.25
2019-01-11T02:55:18.521Z,102651.39
2019-01-11T02:57:48.180Z,102648.91
2019-01-11T03:00:18.951Z,102655.95
2019-01-11T03:02:49.193Z,102654.20
2019-01-11T03:05:18.448Z,102653.77
2019-01-11T03:07:47.019Z,102649.03
2019-01-11T03:10:18.310Z,102646.41
2019-01-11T03:12:46.282Z,102642.88
2019-01-11T03:15:15.294Z,102635.81
2019-01-11T03:17:43.998Z,102631.57
2019-01-11T03:20:13.818Z,102630.19
2019-01-11T03:22:43.475Z,102631.51
2019-01-11T03:25:12.582Z,102637.57
2019-01-11T03:27:40.840Z,102624.56
2019-01-11T03:30:13.451Z,102624.98
2019-01-11T03:32:41.749Z,102618.52
2019-01-11T03:35:17.453Z,102624.17
2019-01-11T03:37:49.272Z,102623.75
2019-01-11T03:40:22.950Z,102620.27
2019-01-11T03:42:52.824Z,102621.54
2019-01-11T03:45:25.651Z,102624.44
2019-01-11T03:47:53.807Z,102619.44
2019-01-11T03:50:27.277Z,102611.61
2019-01-11T03:52:59.190Z,102615.05
2019-01-11T03:55:27.263Z,102613.37
2019-01-11T03:57:55.680Z,102614.68
2019-01-11T04:00:24.452Z,102606.97
2019-01-11T04:02:52.465Z,102611.70
2019-01-11T04:05:20.599Z,102602.98
2019-01-11T04:07:49.129Z,102605.12
2019-01-11T04:10:20.180Z,102600.33
2019-01-11T04:12:48.406Z,102598.56
2019-01-11T04:15:17.527Z,102590.03
2019-01-11T04:17:47.424Z,102592.11
2019-01-11T04:20:19.202Z,102600.03
2019-01-11T04:22:50.464Z,102599.98
2019-01-11T04:25:20.308Z,102597.75
2019-01-11T04:27:49.328Z,102598.15
2019-01-11T04:30:19.940Z,102595.03
2019-01-11T04:32:48.116Z,102595.42
2019-01-11T04:35:16.093Z,102592.23
2019-01-11T04:37:44.215Z,102597.39
2019-01-11T04:40:14.422Z,102593.00
2019-01-11T04:42:42.240Z,102603.04
2019-01-11T04:45:10.813Z,102590.42
2019-01-11T04:47:38.710Z,102589.16
2019-01-11T04:50:09.530Z,102588.72
2019-01-11T04:52:37.861Z,102580.45
2019-01-11T04:55:06.711Z,102580.36
2019-01-11T04:57:34.644Z,102584.68
2019-01-11T05:00:05.100Z,102586.00
2019-01-11T05:02:32.981Z,102592.68
2019-01-11T05:05:00.877Z,102593.56
2019-01-11T05:07:28.867Z,102600.04
2019-01-11T05:09:56.897Z,102591.77
2019-01-11T05:12:24.914Z,102594.44
2019-01-11T05:14:52.960Z,102597.32
2019-01-11T05:17:22.904Z,102592.48
2019-01-11T05:19:50.887Z,102586.93
2019-01-11T05:22:18.768Z,102594.18
2019-01-11T05:24:46.796Z,102584.16
2019-01-11T05:27:17.452Z,102593.66
2019-01-11T05:29:45.231Z,102589.20
2019-01-11T05:32:13.244Z,102598.42
2019-01-11T05:34:41.180Z,102587.98
2019-01-11T05:37:09.067Z,102587.77
2019-01-11T05:39:37.095Z,102591.27
2019-01-11T05:42:05.043Z,102575.66
2019-01-11T05:44:33.070Z,102581.38
2019-01-11T05:47:00.963Z,102580.30
2019-01-11T05:49:29.044Z,102575.09
2019-01-11T05:51:56.910Z,102569.69
2019-01-11T05:54:25.015Z,102568.42
2019-01-11T05:56:53.079Z,102573.55
2019-01-11T05:59:21.289Z,102579.47
2019-01-11T06:01:49.234Z,102583.84
2019-01-11T06:04:39.714Z,102585.48
2019-01-11T06:07:27.581Z,102584.48
2019-01-11T06:09:55.539Z,102591.77
2019-01-11T06:12:23.363Z,102598.64
2019-01-11T06:14:51.234Z,102594.69
2019-01-11T06:17:20.161Z,102607.65
2019-01-11T06:19:48.150Z,102602.51
2019-01-11T06:22:16.141Z,102605.45
2019-01-11T06:24:44.216Z,102616.42
2019-01-11T06:27:12.180Z,102613.73
2019-01-11T06:29:41.008Z,102610.17
2019-01-11T06:32:09.466Z,102605.00
2019-01-11T06:34:43.355Z,102601.47
2019-01-11T06:37:11.293Z,102602.67
2019-01-11T06:39:39.709Z,102607.84
2019-01-11T06:42:38.945Z,102603.91
2019-01-11T06:45:08.477Z,102607.41
2019-01-11T06:47:36.845Z,102618.51
2019-01-11T06:50:08.976Z,102625.02
2019-01-11T06:52:36.985Z,102633.39
2019-01-11T06:55:07.959Z,102639.79
2019-01-11T06:57:35.899Z,102641.13
2019-01-11T07:00:08.579Z,102636.31
2019-01-11T07:02:36.505Z,102643.86
2019-01-11T07:05:06.201Z,102632.95
2019-01-11T07:07:35.305Z,102635.05
2019-01-11T07:10:06.199Z,102638.66
2019-01-11T07:12:34.131Z,102648.14
2019-01-11T07:15:01.998Z,102647.98
2019-01-11T07:17:30.063Z,102649.70
2019-01-11T07:20:05.360Z,102650.46
2019-01-11T07:22:28.786Z,102651.75
2019-01-11T07:24:56.815Z,102649.33
2019-01-11T07:27:25.515Z,102655.83
2019-01-11T07:29:53.344Z,102650.46
2019-01-11T07:32:21.310Z,102641.13
2019-01-11T07:34:49.304Z,102642.91
2019-01-11T07:37:17.235Z,102657.20
2019-01-11T07:39:45.178Z,102665.91
2019-01-11T07:42:14.103Z,102667.84
2019-01-11T07:44:42.058Z,102660.91
2019-01-11T07:47:09.938Z,102662.06
2019-01-11T07:49:37.796Z,102658.36
2019-01-11T07:52:07.146Z,102660.06
2019-01-11T07:54:35.327Z,102664.95
2019-01-11T07:57:03.663Z,102665.41
2019-01-11T07:59:31.786Z,102668.22
2019-01-11T08:02:00.666Z,102671.05
2019-01-11T08:04:28.560Z,102677.56
2019-01-11T08:06:56.958Z,102669.22
2019-01-11T08:09:24.878Z,102670.80
2019-01-11T08:11:55.416Z,102679.03
2019-01-11T08:14:23.504Z,102678.70
2019-01-11T08:16:51.871Z,102675.13
2019-01-11T08:19:20.086Z,102682.30
2019-01-11T08:21:48.113Z,102676.95
2019-01-11T08:24:17.318Z,102680.81
2019-01-11T08:26:45.498Z,102679.00
2019-01-11T08:29:13.529Z,102681.96
2019-01-11T08:31:41.492Z,102679.66
2019-01-11T08:34:09.331Z,102676.82
2019-01-11T08:36:38.118Z,102683.33
2019-01-11T08:39:08.729Z,102672.80
2019-01-11T08:41:37.423Z,102671.72
2019-01-11T08:44:06.250Z,102673.61
2019-01-11T08:46:34.095Z,102674.87
2019-01-11T08:49:02.063Z,102680.78
2019-01-11T08:51:30.205Z,102677.40
2019-01-11T08:53:58.099Z,102667.91
2019-01-11T08:56:25.988Z,102670.28
2019-01-11T08:58:53.886Z,102664.10
2019-01-11T09:01:21.732Z,102669.54
2019-01-11T09:03:49.570Z,102664.20
2019-01-11T09:06:17.763Z,102665.69
2019-01-11T09:08:46.111Z,102666.17
2019-01-11T09:11:13.955Z,102666.59
2019-01-11T09:13:45.863Z,102663.61
2019-01-11T09:16:13.763Z,102668.09
2019-01-11T09:19:00.636Z,102667.13
2019-01-11T09:21:28.558Z,102665.03
2019-01-11T09:23:56.460Z,102667.19
2019-01-11T09:26:24.484Z,102666.78
2019-01-11T09:28:52.320Z,102674.06
2019-01-11T09:31:20.236Z,102667.52
2019-01-11T09:33:48.199Z,102683.20
2019-01-11T09:36:16.039Z,102679.98
2019-01-11T09:38:43.864Z,102680.06
2019-01-11T09:41:12.062Z,102682.52
2019-01-11T09:43:40.351Z,102676.45
2019-01-11T09:46:08.595Z,102679.59
2019-01-11T09:48:36.660Z,102680.02
2019-01-11T09:51:04.941Z,102679.36
2019-01-11T09:53:32.750Z,102675.64
2019-01-11T09:56:00.735Z,102678.81
2019-01-11T09:58:28.562Z,102682.39
2019-01-11T10:00:59.252Z,102681.62
2019-01-11T10:03:26.382Z,102682.83
2019-01-11T10:05:54.268Z,102677.14
2019-01-11T10:08:22.329Z,102680.47
2019-01-11T10:10:50.135Z,102678.95
2019-01-11T10:13:18.101Z,102677.59
2019-01-11T10:15:45.942Z,102683.35
2019-01-11T10:18:13.815Z,102682.27
2019-01-11T10:20:42.059Z,102680.96
2019-01-11T10:23:10.043Z,102684.86
2019-01-11T10:25:37.924Z,102677.72
2019-01-11T10:28:05.908Z,102675.31
2019-01-11T10:30:33.736Z,102689.39
2019-01-11T10:33:01.807Z,102691.23
2019-01-11T10:35:29.677Z,102687.75
2019-01-11T10:37:57.629Z,102693.98
2019-01-11T10:40:26.313Z,102688.96
2019-01-11T10:42:54.251Z,102678.81
2019-01-11T10:45:22.564Z,102697.01
2019-01-11T10:47:52.697Z,102697.43
2019-01-11T10:50:20.684Z,102684.22
2019-01-11T10:52:51.610Z,102691.59
2019-01-11T10:55:19.767Z,102680.58
2019-01-11T10:57:48.383Z,102684.98
2019-01-11T11:00:22.842Z,102682.56
2019-01-11T11:02:51.268Z,102680.64
2019-01-11T11:05:19.585Z,102678.88
2019-01-11T11:07:47.444Z,102682.00
2019-01-11T11:10:15.823Z,102680.82
2019-01-11T11:12:44.271Z,102683.91
2019-01-11T11:15:13.927Z,102686.66
2019-01-11T11:17:42.238Z,102683.96
2019-01-11T11:20:12.942Z,102694.23
2019-01-11T11:22:40.906Z,102687.68
2019-01-11T11:25:13.076Z,102686.74
2019-01-11T11:27:41.076Z,102682.80
2019-01-11T11:30:12.014Z,102685.47
2019-01-11T11:32:55.238Z,102683.59
2019-01-11T11:35:24.448Z,102672.22
2019-01-11T11:37:52.419Z,102677.89
2019-01-11T11:40:20.456Z,102680.70
2019-01-11T11:42:49.217Z,102672.23
2019-01-11T11:45:18.479Z,102675.02
2019-01-11T11:47:46.503Z,102675.45
2019-01-11T11:50:14.327Z,102670.82
2019-01-11T11:52:42.168Z,102669.20
2019-01-11T11:55:10.513Z,102668.12
2019-01-11T11:57:38.524Z,102670.86
2019-01-11T12:00:10.338Z,102659.80
2019-01-11T12:02:38.247Z,102663.69
2019-01-11T12:05:07.220Z,102664.04
2019-01-11T12:07:35.896Z,102657.95
2019-01-11T12:10:04.599Z,102653.23
2019-01-11T12:12:32.530Z,102657.30
2019-01-11T12:15:00.382Z,102653.42
2019-01-11T12:17:28.715Z,102648.77
2019-01-11T12:19:57.194Z,102646.78
2019-01-11T12:22:25.151Z,102646.52
2019-01-11T12:24:53.340Z,102643.20
2019-01-11T12:27:21.415Z,102638.64
2019-01-11T12:29:49.255Z,102640.02
2019-01-11T12:32:19.671Z,102634.68
2019-01-11T12:34:46.958Z,102634.78
2019-01-11T12:37:14.981Z,102635.13
2019-01-11T12:39:42.834Z,102632.22
2019-01-11T12:42:13.303Z,102627.34
2019-01-11T12:44:40.749Z,102617.74
2019-01-11T12:47:08.591Z,102615.94
2019-01-11T12:49:36.454Z,102617.76
2019-01-11T12:52:04.487Z,102611.75
2019-01-11T12:54:32.358Z,102613.44
2019-01-11T12:57:00.327Z,102620.16
2019-01-11T12:59:28.278Z,102617.73
2019-01-11T13:01:57.812Z,102616.13
2019-01-11T13:04:25.686Z,102615.84
2019-01-11T13:06:53.682Z,102614.88
2019-01-11T13:09:21.738Z,102619.22
2019-01-11T13:11:49.565Z,102610.17
2019-01-11T13:14:17.545Z,102611.42
2019-01-11T13:16:45.465Z,102606.69
2019-01-11T13:19:13.382Z,102602.64
2019-01-11T13:21:41.511Z,102591.06
2019-01-11T13:24:09.426Z,102599.00
2019-01-11T13:26:37.412Z,102599.23
2019-01-11T13:29:05.379Z,102592.47
2019-01-11T13:31:33.243Z,102597.89
2019-01-11T13:34:01.092Z,102597.34
2019-01-11T13:36:29.917Z,102601.16
2019-01-11T13:38:57.992Z,102609.55
2019-01-11T13:41:29.450Z,102621.41
2019-01-11T13:43:58.743Z,102614.45
2019-01-11T13:46:27.106Z,102612.38
2019-01-11T13:48:55.505Z,102611.72
2019-01-11T13:51:23.491Z,102615.50
2019-01-11T13:53:51.986Z,102615.28
2019-01-11T13:56:20.060Z,102608.27
2019-01-11T13:58:48.110Z,102619.99
2019-01-11T14:01:16.080Z,102618.10
2019-01-11T14:03:43.947Z,102619.02
2019-01-11T14:06:11.953Z,102615.02
2019-01-11T14:08:39.761Z,102614.33
2019-01-11T14:11:07.884Z,102616.73
2019-01-11T14:13:36.163Z,102613.08
2019-01-11T14:16:06.312Z,102618.08
2019-01-11T14:18:34.325Z,102613.58
2019-01-11T14:21:02.415Z,102620.03
2019-01-11T14:23:30.753Z,102623.88
2019-01-11T14:26:01.114Z,102623.52
2019-01-11T14:28:29.167Z,102626.66
2019-01-11T14:30:59.949Z,102634.13
2019-01-11T14:33:27.879Z,102628.91
2019-01-11T14:35:55.791Z,102633.65
2019-01-11T14:38:24.298Z,102628.36
2019-01-11T14:40:52.616Z,102637.67
2019-01-11T14:43:20.564Z,102628.66
2019-01-11T14:45:48.686Z,102631.38
2019-01-11T14:48:16.687Z,102633.59
2019-01-11T14:50:44.631Z,102641.72
2019-01-11T14:53:12.456Z,102633.58
2019-01-11T14:55:40.444Z,102632.59
2019-01-11T14:58:08.349Z,102635.08
2019-01-11T15:00:36.371Z,102639.36
2019-01-11T15:03:04.442Z,102642.05
2019-01-11T15:05:34.207Z,102634.23
2019-01-11T15:08:02.167Z,102645.20
2019-01-11T15:10:33.222Z,102642.27
2019-01-11T15:13:01.196Z,102643.14
2019-01-11T15:15:29.050Z,102642.84
2019-01-11T15:17:56.991Z,102630.91
2019-01-11T15:20:25.015Z,102638.88
2019-01-11T15:22:53.003Z,102647.57
2019-01-11T15:25:23.101Z,102640.72
2019-01-11T15:27:51.630Z,102638.90
2019-01-11T15:30:20.554Z,102640.88
2019-01-11T15:32:48.632Z,102637.98
2019-01-11T15:35:17.525Z,102641.72
2019-01-11T15:37:45.881Z,102642.42
2019-01-11T15:40:21.802Z,102641.97
2019-01-11T15:42:50.365Z,102649.44
2019-01-11T15:45:18.499Z,102641.61
2019-01-11T15:47:46.616Z,102643.23
2019-01-11T15:51:00.992Z,102642.30
2019-01-11T15:53:36.844Z,102639.41
2019-01-11T15:56:08.212Z,102642.12
2019-01-11T15:58:36.034Z,102651.30
2019-01-11T16:01:05.313Z,102653.91
2019-01-11T16:03:33.347Z,102654.64
2019-01-11T16:06:37.513Z,102651.88
2019-01-11T16:10:08.729Z,102649.63
2019-01-11T16:13:34.700Z,102646.47
2019-01-11T16:16:32.963Z,102647.63
2019-01-11T16:19:00.996Z,102645.06
2019-01-11T16:21:29.506Z,102647.15
2019-01-11T16:23:57.454Z,102648.84
2019-01-11T16:26:25.564Z,102652.36
2019-01-11T16:28:55.966Z,102649.16
2019-01-11T16:31:25.091Z,102650.89
2019-01-11T16:33:54.809Z,102650.58
2019-01-11T16:36:24.695Z,102644.28
2019-01-11T16:38:52.773Z,102648.13
2019-01-11T16:41:20.653Z,102653.04
2019-01-11T16:43:48.690Z,102651.56
2019-01-11T16:46:16.611Z,102650.61
2019-01-11T16:48:44.689Z,102653.92
2019-01-11T16:51:12.831Z,102654.69
2019-01-11T16:53:41.117Z,102659.11
2019-01-11T16:56:13.793Z,102662.66
2019-01-11T16:58:41.832Z,102665.08
2019-01-11T17:01:09.892Z,102664.73
2019-01-11T17:03:38.266Z,102660.44
2019-01-11T17:06:09.282Z,102667.61
2019-01-11T17:08:37.882Z,102660.80
2019-01-11T17:11:05.894Z,102665.34
2019-01-11T17:13:40.379Z,102657.16
2019-01-11T17:16:06.554Z,102660.58
2019-01-11T17:18:34.544Z,102665.41
2019-01-11T17:21:02.449Z,102665.05
2019-01-11T17:23:30.734Z,102663.64
2019-01-11T17:25:59.100Z,102674.14
2019-01-11T17:28:26.951Z,102661.20
2019-01-11T17:30:55.277Z,102661.56
2019-01-11T17:33:26.223Z,102667.23
2019-01-11T17:35:57.446Z,102664.60
2019-01-11T17:38:27.114Z,102669.81
2019-01-11T17:40:55.636Z,102668.50
2019-01-11T17:43:25.093Z,102667.08
2019-01-11T17:45:53.214Z,102664.89
2019-01-11T17:48:22.016Z,102671.41
2019-01-11T17:50:53.203Z,102672.36
2019-01-11T17:53:21.496Z,102679.80
2019-01-11T17:55:49.968Z,102680.67
2019-01-11T17:58:18.643Z,102674.64
2019-01-11T18:00:48.026Z,102683.32
2019-01-11T18:03:16.018Z,102688.98
2019-01-11T18:05:45.164Z,102684.25
2019-01-11T18:08:13.053Z,102688.05
2019-01-11T18:10:40.993Z,102687.64
2019-01-11T18:13:09.135Z,102687.53
2019-01-11T18:15:37.223Z,102683.91
2019-01-11T18:18:05.016Z,102683.36
2019-01-11T18:20:36.076Z,102694.69
2019-01-11T18:23:07.106Z,102691.97
2019-01-11T18:25:34.411Z,102696.29
2019-01-11T18:28:02.372Z,102703.30
2019-01-11T18:30:30.326Z,102698.23
2019-01-11T18:32:58.293Z,102709.27
2019-01-11T18:35:26.183Z,102707.16
2019-01-11T18:37:54.537Z,102703.44
2019-01-11T18:40:25.171Z,102703.12
2019-01-11T18:42:53.593Z,102703.61
2019-01-11T18:45:28.891Z,102708.13
2019-01-11T18:47:56.173Z,102711.98
2019-01-11T18:50:27.006Z,102710.98
2019-01-11T18:52:57.603Z,102716.55
2019-01-11T18:55:26.395Z,102713.33
2019-01-11T18:57:54.459Z,102714.13
2019-01-11T19:00:23.369Z,102717.78
2019-01-11T19:02:51.341Z,102714.08
2019-01-11T19:05:21.298Z,102718.33
2019-01-11T19:07:49.267Z,102710.44
2019-01-11T19:10:19.600Z,102719.84
2019-01-11T19:12:47.933Z,102714.25
2019-01-11T19:15:19.537Z,102718.69
2019-01-11T19:17:47.506Z,102717.01
2019-01-11T19:20:23.349Z,102721.65
2019-01-11T19:22:51.379Z,102717.50
2019-01-11T19:25:19.986Z,102718.69
2019-01-11T19:27:48.883Z,102707.92
2019-01-11T19:30:20.100Z,102715.19
2019-01-11T19:32:48.790Z,102711.30
2019-01-11T19:35:17.229Z,102714.90
2019-01-11T19:37:45.110Z,102585.75
2019-01-11T19:40:19.371Z,102711.53
2019-01-11T19:42:47.712Z,102709.75
2019-01-11T19:45:17.207Z,102709.35
2019-01-11T19:47:48.249Z,102709.03
2019-01-11T19:50:19.322Z,102706.42
2019-01-11T19:52:47.729Z,102705.52
2019-01-11T19:55:16.152Z,102705.21
2019-01-11T19:57:45.662Z,102709.54
2019-01-11T20:00:18.148Z,102708.89
2019-01-11T20:02:46.547Z,102713.77
2019-01-11T20:05:14.980Z,102716.44
2019-01-11T20:07:42.844Z,102718.98
2019-01-11T20:10:18.555Z,102707.49
2019-01-11T20:12:46.498Z,102711.94
2019-01-11T20:15:17.104Z,102707.08
2019-01-11T20:17:47.518Z,102709.92
2019-01-11T20:20:15.642Z,102708.23
2019-01-11T20:22:43.619Z,102713.58
2019-01-11T20:25:14.994Z,102719.46
2019-01-11T20:27:47.674Z,102711.45
2019-01-11T20:30:19.044Z,102714.87
2019-01-11T20:32:47.721Z,102721.81
2019-01-11T20:35:15.781Z,102725.85
2019-01-11T20:37:44.686Z,102733.42
2019-01-11T20:40:14.275Z,102736.62
2019-01-11T20:42:42.479Z,102727.61
2019-01-11T20:45:16.342Z,102726.99
2019-01-11T20:47:44.717Z,102725.20
2019-01-11T20:50:16.367Z,102722.93
2019-01-11T20:52:44.297Z,102725.45
2019-01-11T20:55:12.424Z,102722.27
2019-01-11T20:57:40.474Z,102726.77
2019-01-11T21:00:20.594Z,102727.20
2019-01-11T21:02:48.473Z,102729.20
2019-01-11T21:05:16.767Z,102725.67
2019-01-11T21:07:44.740Z,102724.94
2019-01-11T21:10:13.554Z,102721.75
2019-01-11T21:12:41.950Z,102720.49
2019-01-11T21:15:11.226Z,102726.91
2019-01-11T21:17:43.395Z,102725.42
2019-01-11T21:20:13.933Z,102723.97
2019-01-11T21:22:42.059Z,102721.67
2019-01-11T21:25:11.797Z,102719.50
2019-01-11T21:27:39.732Z,102720.95
2019-01-11T21:30:15.861Z,102722.63
2019-01-11T21:32:44.035Z,102717.84
2019-01-11T21:35:12.142Z,102719.17
2019-01-11T21:37:40.016Z,102722.34
2019-01-11T21:40:11.766Z,102732.11
2019-01-11T21:42:39.747Z,102724.16
2019-01-11T21:45:10.981Z,102722.83
2019-01-11T21:47:39.556Z,102724.13
2019-01-11T21:50:12.236Z,102720.95
2019-01-11T21:52:40.053Z,102719.71
2019-01-11T21:55:08.688Z,102718.87
2019-01-11T21:57:36.729Z,102720.50
2019-01-11T22:00:11.736Z,102712.75
2019-01-11T22:02:39.747Z,102710.63
2019-01-11T22:05:07.739Z,102709.54
2019-01-11T22:07:35.538Z,102711.48
2019-01-11T22:10:05.734Z,102712.98
2019-01-11T22:12:33.651Z,102708.88
2019-01-11T22:15:03.650Z,102713.23
2019-01-11T22:17:31.837Z,102720.28
2019-01-11T22:19:59.865Z,102720.25
2019-01-11T22:22:27.974Z,102722.86
2019-01-11T22:24:55.966Z,102722.43
2019-01-11T22:27:25.593Z,102718.92
2019-01-11T22:29:53.716Z,102721.49
2019-01-11T22:32:21.655Z,102720.05
2019-01-11T22:34:49.678Z,102713.53
2019-01-11T22:37:17.665Z,102717.27
2019-01-11T22:39:45.644Z,102714.61
2019-01-11T22:42:14.351Z,102714.11
2019-01-11T22:44:42.232Z,102716.00
2019-01-11T22:47:10.175Z,102709.87
2019-01-11T22:49:38.599Z,102711.20
2019-01-11T22:52:06.510Z,102712.52
2019-01-11T22:54:39.535Z,102712.92
2019-01-11T22:57:07.328Z,102714.62
2019-01-11T22:59:35.379Z,102708.20
2019-01-11T23:02:43.824Z,102706.72
2019-01-11T23:05:20.464Z,102699.30
2019-01-11T23:07:56.914Z,102699.77
2019-01-11T23:11:55.502Z,102706.47
2019-01-11T23:14:23.566Z,102702.25
2019-01-11T23:17:38.569Z,102707.00
2019-01-11T23:20:13.771Z,102706.60
2019-01-11T23:22:45.144Z,102707.95
2019-01-11T23:25:13.216Z,102695.27
2019-01-11T23:27:41.148Z,102690.92
2019-01-11T23:30:14.256Z,102689.09
2019-01-11T23:32:43.824Z,102692.06
2019-01-11T23:35:11.669Z,102687.47
2019-01-11T23:37:39.685Z,102686.95
2019-01-11T23:40:10.919Z,102689.48
2019-01-11T23:42:45.147Z,102685.07
2019-01-11T23:45:13.181Z,102692.31
2019-01-11T23:47:41.203Z,102686.20
2019-01-11T23:50:13.409Z,102698.60
2019-01-11T23:52:41.418Z,102693.38
2019-01-11T23:55:09.667Z,102698.09
2019-01-11T23:57:37.685Z,102696.39
